sensor_id;sensor_type;location;lat;lon;timestamp;temperature;humidity
48666;DHT22;34452;50.796;4.994;2023-03-01T00:01:02;0.50;95.70
48666;DHT22;34452;50.796;4.994;2023-03-01T00:03:28;0.40;95.60
48666;DHT22;34452;50.796;4.994;2023-03-01T00:05:54;0.40;95.30
48666;DHT22;34452;50.796;4.994;2023-03-01T00:08:19;0.40;95.30
48666;DHT22;34452;50.796;4.994;2023-03-01T00:10:45;0.50;95.50
48666;DHT22;34452;50.796;4.994;2023-03-01T00:13:11;0.60;95.50
48666;DHT22;34452;50.796;4.994;2023-03-01T00:15:39;0.60;95.30
48666;DHT22;34452;50.796;4.994;2023-03-01T00:18:05;0.60;95.20
48666;DHT22;34452;50.796;4.994;2023-03-01T00:20:31;0.60;95.10
48666;DHT22;34452;50.796;4.994;2023-03-01T00:22:57;0.60;95.40
48666;DHT22;34452;50.796;4.994;2023-03-01T00:25:23;0.60;95.40
48666;DHT22;34452;50.796;4.994;2023-03-01T00:27:48;0.60;95.50
48666;DHT22;34452;50.796;4.994;2023-03-01T00:30:14;0.60;96.00
48666;DHT22;34452;50.796;4.994;2023-03-01T00:32:40;0.60;96.30
48666;DHT22;34452;50.796;4.994;2023-03-01T00:35:06;0.60;96.80
48666;DHT22;34452;50.796;4.994;2023-03-01T00:37:32;0.40;97.00
48666;DHT22;34452;50.796;4.994;2023-03-01T00:39:58;0.30;97.20
48666;DHT22;34452;50.796;4.994;2023-03-01T00:42:23;0.30;97.10
48666;DHT22;34452;50.796;4.994;2023-03-01T00:44:49;0.30;97.20
48666;DHT22;34452;50.796;4.994;2023-03-01T00:47:15;0.30;96.90
48666;DHT22;34452;50.796;4.994;2023-03-01T00:49:40;0.20;97.10
48666;DHT22;34452;50.796;4.994;2023-03-01T00:52:06;0.30;96.90
48666;DHT22;34452;50.796;4.994;2023-03-01T00:54:32;0.30;96.70
48666;DHT22;34452;50.796;4.994;2023-03-01T00:56:58;0.30;97.20
48666;DHT22;34452;50.796;4.994;2023-03-01T00:59:23;0.10;97.90
48666;DHT22;34452;50.796;4.994;2023-03-01T01:01:49;0.10;98.30
48666;DHT22;34452;50.796;4.994;2023-03-01T01:04:15;0.00;98.80
48666;DHT22;34452;50.796;4.994;2023-03-01T01:06:43;-0.10;99.00
48666;DHT22;34452;50.796;4.994;2023-03-01T01:09:11;0.00;99.10
48666;DHT22;34452;50.796;4.994;2023-03-01T01:11:50;0.00;98.90
48666;DHT22;34452;50.796;4.994;2023-03-01T01:14:17;0.00;98.70
48666;DHT22;34452;50.796;4.994;2023-03-01T01:16:43;0.10;98.90
48666;DHT22;34452;50.796;4.994;2023-03-01T01:19:10;0.00;98.90
48666;DHT22;34452;50.796;4.994;2023-03-01T01:21:36;0.00;99.00
48666;DHT22;34452;50.796;4.994;2023-03-01T01:24:04;0.00;99.10
48666;DHT22;34452;50.796;4.994;2023-03-01T01:26:32;0.00;99.10
48666;DHT22;34452;50.796;4.994;2023-03-01T01:28:59;0.00;99.20
48666;DHT22;34452;50.796;4.994;2023-03-01T01:31:26;-0.10;99.40
48666;DHT22;34452;50.796;4.994;2023-03-01T01:33:52;-0.10;99.70
48666;DHT22;34452;50.796;4.994;2023-03-01T01:36:18;0.00;99.80
48666;DHT22;34452;50.796;4.994;2023-03-01T01:38:44;0.00;99.90
48666;DHT22;34452;50.796;4.994;2023-03-01T01:41:11;0.00;99.70
48666;DHT22;34452;50.796;4.994;2023-03-01T01:43:40;-0.10;99.90
48666;DHT22;34452;50.796;4.994;2023-03-01T01:49:27;-0.20;99.90
48666;DHT22;34452;50.796;4.994;2023-03-01T01:52:00;-0.30;99.90
48666;DHT22;34452;50.796;4.994;2023-03-01T01:54:34;-0.30;99.90
48666;DHT22;34452;50.796;4.994;2023-03-01T01:57:07;-0.30;99.90
48666;DHT22;34452;50.796;4.994;2023-03-01T01:59:34;-0.20;99.90
48666;DHT22;34452;50.796;4.994;2023-03-01T02:02:02;-0.20;99.90
48666;DHT22;34452;50.796;4.994;2023-03-01T02:04:30;-0.20;99.90
48666;DHT22;34452;50.796;4.994;2023-03-01T02:07:03;-0.20;99.90
48666;DHT22;34452;50.796;4.994;2023-03-01T02:09:32;-0.20;99.90
48666;DHT22;34452;50.796;4.994;2023-03-01T02:11:59;-0.10;99.90
48666;DHT22;34452;50.796;4.994;2023-03-01T02:14:25;-0.10;99.90
48666;DHT22;34452;50.796;4.994;2023-03-01T02:16:51;-0.10;99.90
48666;DHT22;34452;50.796;4.994;2023-03-01T02:22:24;-0.10;99.90
48666;DHT22;34452;50.796;4.994;2023-03-01T02:27:38;-0.10;99.90
48666;DHT22;34452;50.796;4.994;2023-03-01T02:30:06;-0.10;99.90
48666;DHT22;34452;50.796;4.994;2023-03-01T02:32:33;-0.20;99.90
48666;DHT22;34452;50.796;4.994;2023-03-01T02:34:59;-0.20;99.90
48666;DHT22;34452;50.796;4.994;2023-03-01T02:37:26;-0.20;99.90
48666;DHT22;34452;50.796;4.994;2023-03-01T02:39:58;-0.20;99.90
48666;DHT22;34452;50.796;4.994;2023-03-01T02:42:47;-0.30;99.90
48666;DHT22;34452;50.796;4.994;2023-03-01T02:45:14;-0.30;99.90
48666;DHT22;34452;50.796;4.994;2023-03-01T02:47:40;-0.30;99.90
48666;DHT22;34452;50.796;4.994;2023-03-01T02:52:55;-0.60;99.90
48666;DHT22;34452;50.796;4.994;2023-03-01T02:55:22;-0.60;99.90
48666;DHT22;34452;50.796;4.994;2023-03-01T02:57:48;-0.70;99.90
48666;DHT22;34452;50.796;4.994;2023-03-01T03:00:19;-0.70;99.90
48666;DHT22;34452;50.796;4.994;2023-03-01T03:02:47;-0.70;99.90
48666;DHT22;34452;50.796;4.994;2023-03-01T03:05:17;-0.80;99.90
48666;DHT22;34452;50.796;4.994;2023-03-01T03:07:45;-0.70;99.90
48666;DHT22;34452;50.796;4.994;2023-03-01T03:10:14;-0.70;99.90
48666;DHT22;34452;50.796;4.994;2023-03-01T03:12:40;-0.70;99.90
48666;DHT22;34452;50.796;4.994;2023-03-01T03:15:08;-0.70;99.90
48666;DHT22;34452;50.796;4.994;2023-03-01T03:17:36;-0.70;99.90
48666;DHT22;34452;50.796;4.994;2023-03-01T03:20:03;-0.70;99.90
48666;DHT22;34452;50.796;4.994;2023-03-01T03:22:30;-0.70;99.90
48666;DHT22;34452;50.796;4.994;2023-03-01T03:24:56;-0.80;99.90
48666;DHT22;34452;50.796;4.994;2023-03-01T03:27:22;-0.70;99.90
48666;DHT22;34452;50.796;4.994;2023-03-01T03:29:47;-0.70;99.90
48666;DHT22;34452;50.796;4.994;2023-03-01T03:32:13;-0.80;99.90
48666;DHT22;34452;50.796;4.994;2023-03-01T03:34:39;-0.70;99.90
48666;DHT22;34452;50.796;4.994;2023-03-01T03:37:04;-0.70;99.90
48666;DHT22;34452;50.796;4.994;2023-03-01T03:39:50;-0.60;99.90
48666;DHT22;34452;50.796;4.994;2023-03-01T03:42:21;-0.60;99.90
48666;DHT22;34452;50.796;4.994;2023-03-01T03:44:48;-0.60;99.90
48666;DHT22;34452;50.796;4.994;2023-03-01T03:47:14;-0.60;99.90
48666;DHT22;34452;50.796;4.994;2023-03-01T03:49:39;-0.60;99.90
48666;DHT22;34452;50.796;4.994;2023-03-01T03:52:05;-0.60;99.90
48666;DHT22;34452;50.796;4.994;2023-03-01T03:54:40;-0.60;99.90
48666;DHT22;34452;50.796;4.994;2023-03-01T03:57:06;-0.70;99.90
48666;DHT22;34452;50.796;4.994;2023-03-01T03:59:32;-0.70;99.90
48666;DHT22;34452;50.796;4.994;2023-03-01T04:01:57;-0.80;99.90
48666;DHT22;34452;50.796;4.994;2023-03-01T04:04:23;-0.80;99.90
48666;DHT22;34452;50.796;4.994;2023-03-01T04:06:49;-0.80;99.90
48666;DHT22;34452;50.796;4.994;2023-03-01T04:09:14;-0.80;99.90
48666;DHT22;34452;50.796;4.994;2023-03-01T04:11:40;-0.80;99.90
48666;DHT22;34452;50.796;4.994;2023-03-01T04:14:06;-0.80;99.90
48666;DHT22;34452;50.796;4.994;2023-03-01T04:16:32;-0.90;99.90
48666;DHT22;34452;50.796;4.994;2023-03-01T04:18:57;-0.90;99.90
48666;DHT22;34452;50.796;4.994;2023-03-01T04:21:25;-0.90;99.90
48666;DHT22;34452;50.796;4.994;2023-03-01T04:23:51;-0.90;99.90
48666;DHT22;34452;50.796;4.994;2023-03-01T04:26:18;-0.90;99.90
48666;DHT22;34452;50.796;4.994;2023-03-01T04:28:45;-0.90;99.90
48666;DHT22;34452;50.796;4.994;2023-03-01T04:31:14;-1.00;99.90
48666;DHT22;34452;50.796;4.994;2023-03-01T04:33:46;-1.00;99.90
48666;DHT22;34452;50.796;4.994;2023-03-01T04:36:14;-1.00;99.90
48666;DHT22;34452;50.796;4.994;2023-03-01T04:38:40;-1.00;99.90
48666;DHT22;34452;50.796;4.994;2023-03-01T04:41:08;-1.10;99.90
48666;DHT22;34452;50.796;4.994;2023-03-01T04:43:34;-1.10;99.90
48666;DHT22;34452;50.796;4.994;2023-03-01T04:46:03;-1.10;99.90
48666;DHT22;34452;50.796;4.994;2023-03-01T04:48:30;-1.20;99.90
48666;DHT22;34452;50.796;4.994;2023-03-01T04:50:58;-1.10;99.90
48666;DHT22;34452;50.796;4.994;2023-03-01T04:53:24;-1.10;99.90
48666;DHT22;34452;50.796;4.994;2023-03-01T04:55:50;-1.10;99.90
48666;DHT22;34452;50.796;4.994;2023-03-01T04:58:16;-1.10;99.90
48666;DHT22;34452;50.796;4.994;2023-03-01T05:00:42;-1.10;99.90
48666;DHT22;34452;50.796;4.994;2023-03-01T05:03:08;-1.10;99.90
48666;DHT22;34452;50.796;4.994;2023-03-01T05:05:34;-1.10;99.90
48666;DHT22;34452;50.796;4.994;2023-03-01T05:08:04;-1.20;99.90
48666;DHT22;34452;50.796;4.994;2023-03-01T05:10:32;-1.20;99.90
48666;DHT22;34452;50.796;4.994;2023-03-01T05:12:59;-1.20;99.90
48666;DHT22;34452;50.796;4.994;2023-03-01T05:15:25;-1.20;99.90
48666;DHT22;34452;50.796;4.994;2023-03-01T05:17:52;-1.30;99.90
48666;DHT22;34452;50.796;4.994;2023-03-01T05:20:19;-1.30;99.90
48666;DHT22;34452;50.796;4.994;2023-03-01T05:22:49;-1.40;99.90
48666;DHT22;34452;50.796;4.994;2023-03-01T05:25:14;-1.50;99.90
48666;DHT22;34452;50.796;4.994;2023-03-01T05:27:40;-1.40;99.90
48666;DHT22;34452;50.796;4.994;2023-03-01T05:30:06;-1.40;99.90
48666;DHT22;34452;50.796;4.994;2023-03-01T05:32:51;-1.40;99.90
48666;DHT22;34452;50.796;4.994;2023-03-01T05:35:21;-1.40;99.90
48666;DHT22;34452;50.796;4.994;2023-03-01T05:37:47;-1.40;99.90
48666;DHT22;34452;50.796;4.994;2023-03-01T05:40:17;-1.40;99.90
48666;DHT22;34452;50.796;4.994;2023-03-01T05:42:46;-1.40;99.90
48666;DHT22;34452;50.796;4.994;2023-03-01T05:45:13;-1.50;99.90
48666;DHT22;34452;50.796;4.994;2023-03-01T05:47:40;-1.60;99.90
48666;DHT22;34452;50.796;4.994;2023-03-01T05:50:25;-1.60;99.90
48666;DHT22;34452;50.796;4.994;2023-03-01T05:52:56;-1.70;99.90
48666;DHT22;34452;50.796;4.994;2023-03-01T05:55:23;-1.70;99.90
48666;DHT22;34452;50.796;4.994;2023-03-01T05:57:49;-1.70;99.90
48666;DHT22;34452;50.796;4.994;2023-03-01T06:00:17;-1.70;99.90
48666;DHT22;34452;50.796;4.994;2023-03-01T06:02:44;-1.70;99.90
48666;DHT22;34452;50.796;4.994;2023-03-01T06:05:11;-1.70;99.90
48666;DHT22;34452;50.796;4.994;2023-03-01T06:07:38;-1.70;99.90
48666;DHT22;34452;50.796;4.994;2023-03-01T06:10:05;-1.70;99.90
48666;DHT22;34452;50.796;4.994;2023-03-01T06:12:33;-1.70;99.90
48666;DHT22;34452;50.796;4.994;2023-03-01T06:14:59;-1.70;99.90
48666;DHT22;34452;50.796;4.994;2023-03-01T06:17:26;-1.80;99.90
48666;DHT22;34452;50.796;4.994;2023-03-01T06:19:51;-1.80;99.90
48666;DHT22;34452;50.796;4.994;2023-03-01T06:22:17;-1.80;99.90
48666;DHT22;34452;50.796;4.994;2023-03-01T06:24:43;-1.80;99.90
48666;DHT22;34452;50.796;4.994;2023-03-01T06:27:08;-1.80;99.90
48666;DHT22;34452;50.796;4.994;2023-03-01T06:29:34;-1.80;99.90
48666;DHT22;34452;50.796;4.994;2023-03-01T06:32:00;-1.80;99.90
48666;DHT22;34452;50.796;4.994;2023-03-01T06:34:25;-1.70;99.90
48666;DHT22;34452;50.796;4.994;2023-03-01T06:36:51;-1.70;99.90
48666;DHT22;34452;50.796;4.994;2023-03-01T06:39:17;-1.70;99.90
48666;DHT22;34452;50.796;4.994;2023-03-01T06:41:43;-1.60;99.90
48666;DHT22;34452;50.796;4.994;2023-03-01T06:44:09;-1.60;99.90
48666;DHT22;34452;50.796;4.994;2023-03-01T06:46:34;-1.60;99.90
48666;DHT22;34452;50.796;4.994;2023-03-01T06:49:00;-1.60;99.90
48666;DHT22;34452;50.796;4.994;2023-03-01T06:51:26;-1.60;99.90
48666;DHT22;34452;50.796;4.994;2023-03-01T06:53:51;-1.60;99.90
48666;DHT22;34452;50.796;4.994;2023-03-01T06:56:17;-1.50;99.90
48666;DHT22;34452;50.796;4.994;2023-03-01T06:58:43;-1.40;99.90
48666;DHT22;34452;50.796;4.994;2023-03-01T07:01:09;-1.40;99.90
48666;DHT22;34452;50.796;4.994;2023-03-01T07:03:35;-1.40;99.90
48666;DHT22;34452;50.796;4.994;2023-03-01T07:06:00;-1.40;99.90
48666;DHT22;34452;50.796;4.994;2023-03-01T07:08:26;-1.40;99.90
48666;DHT22;34452;50.796;4.994;2023-03-01T07:11:07;-1.40;99.90
48666;DHT22;34452;50.796;4.994;2023-03-01T07:13:33;-1.30;99.90
48666;DHT22;34452;50.796;4.994;2023-03-01T07:15:59;-1.30;99.90
48666;DHT22;34452;50.796;4.994;2023-03-01T07:18:24;-1.30;99.90
48666;DHT22;34452;50.796;4.994;2023-03-01T07:20:50;-1.40;99.90
48666;DHT22;34452;50.796;4.994;2023-03-01T07:23:16;-1.40;99.90
48666;DHT22;34452;50.796;4.994;2023-03-01T07:25:42;-1.30;99.90
48666;DHT22;34452;50.796;4.994;2023-03-01T07:28:07;-1.20;99.90
48666;DHT22;34452;50.796;4.994;2023-03-01T07:30:33;-1.20;99.90
48666;DHT22;34452;50.796;4.994;2023-03-01T07:32:59;-1.10;99.90
48666;DHT22;34452;50.796;4.994;2023-03-01T07:35:26;-1.10;99.90
48666;DHT22;34452;50.796;4.994;2023-03-01T07:37:52;-1.00;99.90
48666;DHT22;34452;50.796;4.994;2023-03-01T07:40:19;-0.90;99.90
48666;DHT22;34452;50.796;4.994;2023-03-01T07:42:44;-0.90;99.90
48666;DHT22;34452;50.796;4.994;2023-03-01T07:45:10;-0.90;99.90
48666;DHT22;34452;50.796;4.994;2023-03-01T07:47:36;-0.80;99.90
48666;DHT22;34452;50.796;4.994;2023-03-01T07:50:03;-0.80;99.90
48666;DHT22;34452;50.796;4.994;2023-03-01T07:52:29;-0.80;99.90
48666;DHT22;34452;50.796;4.994;2023-03-01T07:54:56;-0.70;99.90
48666;DHT22;34452;50.796;4.994;2023-03-01T07:57:22;-0.60;99.90
48666;DHT22;34452;50.796;4.994;2023-03-01T07:59:47;-0.60;99.90
48666;DHT22;34452;50.796;4.994;2023-03-01T08:02:13;-0.50;99.90
48666;DHT22;34452;50.796;4.994;2023-03-01T08:04:41;-0.40;99.90
48666;DHT22;34452;50.796;4.994;2023-03-01T08:07:06;-0.40;99.90
48666;DHT22;34452;50.796;4.994;2023-03-01T08:09:34;-0.30;99.90
48666;DHT22;34452;50.796;4.994;2023-03-01T08:12:00;-0.20;99.90
48666;DHT22;34452;50.796;4.994;2023-03-01T08:14:26;-0.20;99.90
48666;DHT22;34452;50.796;4.994;2023-03-01T08:16:52;-0.10;99.90
48666;DHT22;34452;50.796;4.994;2023-03-01T08:19:17;-0.10;99.90
48666;DHT22;34452;50.796;4.994;2023-03-01T08:21:43;0.00;99.90
48666;DHT22;34452;50.796;4.994;2023-03-01T08:24:09;0.00;99.90
48666;DHT22;34452;50.796;4.994;2023-03-01T08:26:36;0.00;99.90
48666;DHT22;34452;50.796;4.994;2023-03-01T08:29:02;0.10;99.90
48666;DHT22;34452;50.796;4.994;2023-03-01T08:31:32;0.10;99.90
48666;DHT22;34452;50.796;4.994;2023-03-01T08:34:01;0.20;99.90
48666;DHT22;34452;50.796;4.994;2023-03-01T08:36:30;0.20;99.90
48666;DHT22;34452;50.796;4.994;2023-03-01T08:38:56;0.20;99.90
48666;DHT22;34452;50.796;4.994;2023-03-01T08:41:22;0.20;99.90
48666;DHT22;34452;50.796;4.994;2023-03-01T08:43:48;0.30;99.90
48666;DHT22;34452;50.796;4.994;2023-03-01T08:46:14;0.30;99.90
48666;DHT22;34452;50.796;4.994;2023-03-01T08:48:40;0.40;99.90
48666;DHT22;34452;50.796;4.994;2023-03-01T08:51:10;0.40;99.90
48666;DHT22;34452;50.796;4.994;2023-03-01T08:53:36;0.40;99.90
48666;DHT22;34452;50.796;4.994;2023-03-01T08:56:02;0.40;99.90
48666;DHT22;34452;50.796;4.994;2023-03-01T08:58:29;0.50;99.90
48666;DHT22;34452;50.796;4.994;2023-03-01T09:00:55;0.60;99.90
48666;DHT22;34452;50.796;4.994;2023-03-01T09:03:22;0.60;99.90
48666;DHT22;34452;50.796;4.994;2023-03-01T09:05:49;0.70;99.90
48666;DHT22;34452;50.796;4.994;2023-03-01T09:08:16;0.80;99.90
48666;DHT22;34452;50.796;4.994;2023-03-01T09:10:41;0.90;99.90
48666;DHT22;34452;50.796;4.994;2023-03-01T09:13:07;0.90;99.90
48666;DHT22;34452;50.796;4.994;2023-03-01T09:15:33;0.90;99.90
48666;DHT22;34452;50.796;4.994;2023-03-01T09:17:59;1.00;99.90
48666;DHT22;34452;50.796;4.994;2023-03-01T09:20:25;1.00;99.90
48666;DHT22;34452;50.796;4.994;2023-03-01T09:22:51;1.10;99.90
48666;DHT22;34452;50.796;4.994;2023-03-01T09:25:16;1.20;99.90
48666;DHT22;34452;50.796;4.994;2023-03-01T09:27:42;1.30;99.90
48666;DHT22;34452;50.796;4.994;2023-03-01T09:30:08;1.40;99.90
48666;DHT22;34452;50.796;4.994;2023-03-01T09:32:34;1.40;99.90
48666;DHT22;34452;50.796;4.994;2023-03-01T09:35:00;1.50;99.90
48666;DHT22;34452;50.796;4.994;2023-03-01T09:37:29;1.60;99.90
48666;DHT22;34452;50.796;4.994;2023-03-01T09:39:54;1.70;99.90
48666;DHT22;34452;50.796;4.994;2023-03-01T09:42:20;1.90;99.90
48666;DHT22;34452;50.796;4.994;2023-03-01T09:45:03;1.90;99.90
48666;DHT22;34452;50.796;4.994;2023-03-01T09:47:31;2.00;99.90
48666;DHT22;34452;50.796;4.994;2023-03-01T09:50:04;2.10;99.90
48666;DHT22;34452;50.796;4.994;2023-03-01T09:55:30;2.20;99.90
48666;DHT22;34452;50.796;4.994;2023-03-01T09:58:01;2.40;99.90
48666;DHT22;34452;50.796;4.994;2023-03-01T10:00:30;2.50;99.90
48666;DHT22;34452;50.796;4.994;2023-03-01T10:03:28;2.50;99.90
48666;DHT22;34452;50.796;4.994;2023-03-01T10:11:33;3.00;99.90
48666;DHT22;34452;50.796;4.994;2023-03-01T10:19:43;3.30;99.90
48666;DHT22;34452;50.796;4.994;2023-03-01T10:22:26;3.40;99.90
48666;DHT22;34452;50.796;4.994;2023-03-01T10:24:55;3.50;99.90
48666;DHT22;34452;50.796;4.994;2023-03-01T10:27:25;3.60;99.90
48666;DHT22;34452;50.796;4.994;2023-03-01T10:32:42;3.60;99.90
48666;DHT22;34452;50.796;4.994;2023-03-01T10:35:27;3.60;99.90
48666;DHT22;34452;50.796;4.994;2023-03-01T10:38:12;3.80;99.90
48666;DHT22;34452;50.796;4.994;2023-03-01T10:40:53;3.80;99.40
48666;DHT22;34452;50.796;4.994;2023-03-01T10:43:19;3.90;99.20
48666;DHT22;34452;50.796;4.994;2023-03-01T10:45:45;4.00;98.80
48666;DHT22;34452;50.796;4.994;2023-03-01T10:48:15;4.20;98.60
48666;DHT22;34452;50.796;4.994;2023-03-01T10:50:44;4.20;97.90
48666;DHT22;34452;50.796;4.994;2023-03-01T10:59:05;4.20;97.60
48666;DHT22;34452;50.796;4.994;2023-03-01T11:01:44;4.30;98.00
48666;DHT22;34452;50.796;4.994;2023-03-01T11:04:12;4.40;97.10
48666;DHT22;34452;50.796;4.994;2023-03-01T11:06:40;4.40;96.70
48666;DHT22;34452;50.796;4.994;2023-03-01T11:09:25;4.60;97.10
48666;DHT22;34452;50.796;4.994;2023-03-01T11:12:14;4.60;97.10
48666;DHT22;34452;50.796;4.994;2023-03-01T11:14:47;4.60;96.40
48666;DHT22;34452;50.796;4.994;2023-03-01T11:19:43;4.80;96.10
48666;DHT22;34452;50.796;4.994;2023-03-01T11:22:24;4.90;96.10
48666;DHT22;34452;50.796;4.994;2023-03-01T11:24:51;4.90;95.50
48666;DHT22;34452;50.796;4.994;2023-03-01T11:27:23;5.00;96.10
48666;DHT22;34452;50.796;4.994;2023-03-01T11:29:59;5.10;95.50
48666;DHT22;34452;50.796;4.994;2023-03-01T11:32:31;5.10;93.90
48666;DHT22;34452;50.796;4.994;2023-03-01T11:35:04;5.10;93.80
48666;DHT22;34452;50.796;4.994;2023-03-01T11:37:55;5.10;93.80
48666;DHT22;34452;50.796;4.994;2023-03-01T11:45:46;5.20;93.50
48666;DHT22;34452;50.796;4.994;2023-03-01T11:54:03;5.00;92.70
48666;DHT22;34452;50.796;4.994;2023-03-01T11:59:48;5.10;92.50
48666;DHT22;34452;50.796;4.994;2023-03-01T12:13:19;5.40;91.30
48666;DHT22;34452;50.796;4.994;2023-03-01T12:15:51;5.40;91.60
48666;DHT22;34452;50.796;4.994;2023-03-01T12:41:33;6.00;90.50
48666;DHT22;34452;50.796;4.994;2023-03-01T12:47:20;6.00;90.70
48666;DHT22;34452;50.796;4.994;2023-03-01T12:49:53;6.10;89.70
48666;DHT22;34452;50.796;4.994;2023-03-01T12:54:51;6.00;87.60
48666;DHT22;34452;50.796;4.994;2023-03-01T12:57:39;6.00;85.60
48666;DHT22;34452;50.796;4.994;2023-03-01T13:03:03;6.40;87.50
48666;DHT22;34452;50.796;4.994;2023-03-01T13:08:22;6.60;83.50
48666;DHT22;34452;50.796;4.994;2023-03-01T13:11:04;6.40;85.10
48666;DHT22;34452;50.796;4.994;2023-03-01T13:13:31;6.40;90.30
48666;DHT22;34452;50.796;4.994;2023-03-01T13:15:57;6.60;86.50
48666;DHT22;34452;50.796;4.994;2023-03-01T13:20:52;6.20;83.00
48666;DHT22;34452;50.796;4.994;2023-03-01T13:31:02;6.70;83.90
48666;DHT22;34452;50.796;4.994;2023-03-01T13:35:55;6.80;84.80
48666;DHT22;34452;50.796;4.994;2023-03-01T13:44:32;7.00;81.60
48666;DHT22;34452;50.796;4.994;2023-03-01T13:50:03;7.20;81.00
48666;DHT22;34452;50.796;4.994;2023-03-01T13:52:50;7.40;81.20
48666;DHT22;34452;50.796;4.994;2023-03-01T13:55:21;7.50;81.60
48666;DHT22;34452;50.796;4.994;2023-03-01T13:57:53;7.60;81.20
48666;DHT22;34452;50.796;4.994;2023-03-01T14:00:39;7.60;77.10
48666;DHT22;34452;50.796;4.994;2023-03-01T14:06:08;7.30;76.70
48666;DHT22;34452;50.796;4.994;2023-03-01T14:08:36;7.30;78.50
48666;DHT22;34452;50.796;4.994;2023-03-01T14:11:25;7.40;78.60
48666;DHT22;34452;50.796;4.994;2023-03-01T14:19:35;7.30;79.20
48666;DHT22;34452;50.796;4.994;2023-03-01T14:22:18;7.30;75.60
48666;DHT22;34452;50.796;4.994;2023-03-01T14:24:48;7.20;77.10
48666;DHT22;34452;50.796;4.994;2023-03-01T14:27:15;7.30;78.30
48666;DHT22;34452;50.796;4.994;2023-03-01T14:29:41;7.30;77.40
48666;DHT22;34452;50.796;4.994;2023-03-01T14:34:35;7.00;77.70
48666;DHT22;34452;50.796;4.994;2023-03-01T14:37:16;7.00;79.60
48666;DHT22;34452;50.796;4.994;2023-03-01T14:39:43;7.10;77.60
48666;DHT22;34452;50.796;4.994;2023-03-01T14:42:09;7.10;78.30
48666;DHT22;34452;50.796;4.994;2023-03-01T14:44:35;7.30;76.90
48666;DHT22;34452;50.796;4.994;2023-03-01T14:47:04;7.30;75.50
48666;DHT22;34452;50.796;4.994;2023-03-01T14:49:31;7.20;77.20
48666;DHT22;34452;50.796;4.994;2023-03-01T14:52:01;7.20;77.80
48666;DHT22;34452;50.796;4.994;2023-03-01T14:54:39;7.20;77.70
48666;DHT22;34452;50.796;4.994;2023-03-01T14:57:06;7.30;76.60
48666;DHT22;34452;50.796;4.994;2023-03-01T14:59:33;7.30;75.90
48666;DHT22;34452;50.796;4.994;2023-03-01T15:02:00;7.40;76.50
48666;DHT22;34452;50.796;4.994;2023-03-01T15:04:26;7.50;76.70
48666;DHT22;34452;50.796;4.994;2023-03-01T15:06:55;7.50;75.70
48666;DHT22;34452;50.796;4.994;2023-03-01T15:09:32;7.40;75.80
48666;DHT22;34452;50.796;4.994;2023-03-01T15:11:59;7.30;75.00
48666;DHT22;34452;50.796;4.994;2023-03-01T15:17:36;7.20;75.20
48666;DHT22;34452;50.796;4.994;2023-03-01T15:20:04;7.20;76.00
48666;DHT22;34452;50.796;4.994;2023-03-01T15:22:31;7.20;74.80
48666;DHT22;34452;50.796;4.994;2023-03-01T15:24:57;7.20;75.60
48666;DHT22;34452;50.796;4.994;2023-03-01T15:27:25;7.30;74.90
48666;DHT22;34452;50.796;4.994;2023-03-01T15:29:53;7.30;75.00
48666;DHT22;34452;50.796;4.994;2023-03-01T15:32:31;7.30;76.30
48666;DHT22;34452;50.796;4.994;2023-03-01T15:34:58;7.30;75.30
48666;DHT22;34452;50.796;4.994;2023-03-01T15:40:28;7.20;75.00
48666;DHT22;34452;50.796;4.994;2023-03-01T15:46:18;7.20;75.80
48666;DHT22;34452;50.796;4.994;2023-03-01T15:48:47;7.10;76.00
48666;DHT22;34452;50.796;4.994;2023-03-01T15:51:15;7.10;76.30
48666;DHT22;34452;50.796;4.994;2023-03-01T15:53:44;7.00;75.00
48666;DHT22;34452;50.796;4.994;2023-03-01T15:56:12;7.10;75.20
48666;DHT22;34452;50.796;4.994;2023-03-01T15:58:38;7.00;77.40
48666;DHT22;34452;50.796;4.994;2023-03-01T16:01:10;7.10;75.50
48666;DHT22;34452;50.796;4.994;2023-03-01T16:03:38;7.20;75.40
48666;DHT22;34452;50.796;4.994;2023-03-01T16:06:04;7.10;74.90
48666;DHT22;34452;50.796;4.994;2023-03-01T16:08:29;7.00;74.10
48666;DHT22;34452;50.796;4.994;2023-03-01T16:10:55;6.90;75.70
48666;DHT22;34452;50.796;4.994;2023-03-01T16:13:21;6.90;76.50
48666;DHT22;34452;50.796;4.994;2023-03-01T16:15:47;6.90;74.70
48666;DHT22;34452;50.796;4.994;2023-03-01T16:18:12;7.00;74.50
48666;DHT22;34452;50.796;4.994;2023-03-01T16:20:39;7.10;74.00
48666;DHT22;34452;50.796;4.994;2023-03-01T16:23:07;7.10;72.80
48666;DHT22;34452;50.796;4.994;2023-03-01T16:25:34;7.00;74.40
48666;DHT22;34452;50.796;4.994;2023-03-01T16:28:00;6.80;74.00
48666;DHT22;34452;50.796;4.994;2023-03-01T16:30:30;6.70;74.00
48666;DHT22;34452;50.796;4.994;2023-03-01T16:32:55;6.60;74.10
48666;DHT22;34452;50.796;4.994;2023-03-01T16:35:22;6.60;76.10
48666;DHT22;34452;50.796;4.994;2023-03-01T16:37:49;6.60;74.40
48666;DHT22;34452;50.796;4.994;2023-03-01T16:40:27;6.50;75.40
48666;DHT22;34452;50.796;4.994;2023-03-01T16:42:55;6.60;75.30
48666;DHT22;34452;50.796;4.994;2023-03-01T16:45:25;6.50;75.10
48666;DHT22;34452;50.796;4.994;2023-03-01T16:47:51;6.40;75.60
48666;DHT22;34452;50.796;4.994;2023-03-01T16:50:17;6.40;75.70
48666;DHT22;34452;50.796;4.994;2023-03-01T16:52:42;6.40;75.20
48666;DHT22;34452;50.796;4.994;2023-03-01T16:55:08;6.30;75.60
48666;DHT22;34452;50.796;4.994;2023-03-01T16:57:36;6.20;76.00
48666;DHT22;34452;50.796;4.994;2023-03-01T17:00:03;6.20;76.30
48666;DHT22;34452;50.796;4.994;2023-03-01T17:02:33;6.10;76.70
48666;DHT22;34452;50.796;4.994;2023-03-01T17:04:59;6.00;77.10
48666;DHT22;34452;50.796;4.994;2023-03-01T17:07:25;6.00;77.10
48666;DHT22;34452;50.796;4.994;2023-03-01T17:09:51;5.90;77.20
48666;DHT22;34452;50.796;4.994;2023-03-01T17:12:17;5.80;77.50
48666;DHT22;34452;50.796;4.994;2023-03-01T17:14:42;5.80;77.60
48666;DHT22;34452;50.796;4.994;2023-03-01T17:17:10;5.60;76.90
48666;DHT22;34452;50.796;4.994;2023-03-01T17:19:36;5.50;78.60
48666;DHT22;34452;50.796;4.994;2023-03-01T17:22:07;5.40;78.70
48666;DHT22;34452;50.796;4.994;2023-03-01T17:24:34;5.30;78.40
48666;DHT22;34452;50.796;4.994;2023-03-01T17:27:00;5.30;78.70
48666;DHT22;34452;50.796;4.994;2023-03-01T17:29:26;5.30;79.60
48666;DHT22;34452;50.796;4.994;2023-03-01T17:31:52;5.20;79.50
48666;DHT22;34452;50.796;4.994;2023-03-01T17:34:21;5.20;79.90
48666;DHT22;34452;50.796;4.994;2023-03-01T17:36:47;5.20;79.70
48666;DHT22;34452;50.796;4.994;2023-03-01T17:39:15;5.10;80.00
48666;DHT22;34452;50.796;4.994;2023-03-01T17:41:41;5.10;80.20
48666;DHT22;34452;50.796;4.994;2023-03-01T17:44:07;5.00;80.50
48666;DHT22;34452;50.796;4.994;2023-03-01T17:46:33;5.00;80.90
48666;DHT22;34452;50.796;4.994;2023-03-01T17:48:59;4.80;81.20
48666;DHT22;34452;50.796;4.994;2023-03-01T17:51:24;4.70;80.90
48666;DHT22;34452;50.796;4.994;2023-03-01T17:53:50;4.70;81.00
48666;DHT22;34452;50.796;4.994;2023-03-01T17:56:16;4.60;81.30
48666;DHT22;34452;50.796;4.994;2023-03-01T17:58:42;4.60;81.40
48666;DHT22;34452;50.796;4.994;2023-03-01T18:01:09;4.60;81.60
48666;DHT22;34452;50.796;4.994;2023-03-01T18:03:35;4.50;82.10
48666;DHT22;34452;50.796;4.994;2023-03-01T18:06:01;4.40;82.80